This is the latest recevied weather packets stored in our database for station/object EA1BQO-1. If no packets are shown the sender has not sent any weather packets the latest 1 day(s).
| Time | Temp. | Humidity | Pressure | Rain* | Wind** | Luminosity | Snow |
|---|---|---|---|---|---|---|---|
| 1777986404 | 16.11° C | 46% | 1010 hPa | 0 mm | 2.68 m/s, 259° | - | - |
| 1777985804 | 15° C | 54% | 1010.1 hPa | 0 mm | 1.34 m/s, 238° | - | - |
| 1777985204 | 13.89° C | 53% | 1010.2 hPa | 0 mm | 2.68 m/s, 261° | - | - |
| 1777984604 | 14.44° C | 53% | 1010.4 hPa | 0 mm | 2.24 m/s, 262° | - | - |
| 1777984004 | 13.33° C | 56% | 1010.5 hPa | 0 mm | 1.34 m/s, 253° | - | - |
| 1777983404 | 13.33° C | 57% | 1010.5 hPa | 0 mm | 1.79 m/s, 281° | - | - |
| 1777982804 | 13.33° C | 56% | 1010.6 hPa | 0 mm | 2.24 m/s, 264° | - | - |
| 1777982204 | 13.33° C | 56% | 1010.6 hPa | 0 mm | 1.34 m/s, 310° | - | - |
| 1777981604 | 13.89° C | 53% | 1010.6 hPa | 0 mm | 3.58 m/s, 273° | - | - |
| 1777981004 | 13.33° C | 60% | 1010.6 hPa | 0 mm | 1.34 m/s, 285° | - | - |
| 1777980404 | 13.33° C | 56% | 1010.7 hPa | 0 mm | 1.79 m/s, 296° | - | - |
| 1777979804 | 12.78° C | 58% | 1011 hPa | 0 mm | 1.34 m/s, 302° | - | - |
| 1777979204 | 13.33° C | 57% | 1010.9 hPa | 0 mm | 2.24 m/s, 283° | - | - |
| 1777978604 | 13.33° C | 53% | 1010.8 hPa | 0 mm | 0.89 m/s, 274° | - | - |
| 1777978004 | 13.33° C | 57% | 1010.8 hPa | 0 mm | 1.79 m/s, 234° | - | - |
| 1777977404 | 12.78° C | 58% | 1011.1 hPa | 0 mm | 1.79 m/s, 250° | - | - |
| 1777976804 | 13.33° C | 63% | 1011.1 hPa | 0 mm | 1.34 m/s, 265° | - | - |
| 1777976204 | 12.22° C | 62% | 1011.2 hPa | 0 mm | 1.34 m/s, 263° | - | - |
| 1777975604 | 12.22° C | 65% | 1011.2 hPa | 0 mm | 1.34 m/s, 272° | - | - |
| 1777975004 | 12.22° C | 63% | 1011.2 hPa | 0 mm | 2.68 m/s, 250° | - | - |
| 1777974404 | 11.67° C | 63% | 1011.1 hPa | 0 mm | 2.24 m/s, 286° | - | - |
* Rain latest hour (hover to see other rain measurements)
** Current wind speed in m/s (hover to see current wind gust speed)